Francis, Mississippi
Current Conditions -  °F | °C
As of 6:35 AM on Sunday 21 Dec 2014 (Local Time) from KRNV Reporting Station
Clear Clear  
Wind Chill: 34°   Ceiling: Unl
Heat Index: 34°   Visibility: 10mi
Dew Point: 34°   Wind: 3mph
Humidity: 99%   Direction: 50°NE
Pressure: 30.18"   Gusts: NA
Location:  34.0609°N, 90.7985°W
Report Text: KRNV 211235Z AUTO 05003KT 10SM CLR 01/01 A3018 RMK AO2 T00120010
Loading
Personal Weather Stations






























Interactive Weather Map New forecast layout! Learn more

10-Day Weather Forecast

Advertisements
Track Severe Weather on mobile